createdAt,value
2022-12-03T00:00:12.457Z,100350.59
2022-12-03T00:02:14.738Z,100353.84
2022-12-03T00:04:16.285Z,100347.28
2022-12-03T00:06:17.954Z,100345.81
2022-12-03T00:08:19.346Z,100347.16
2022-12-03T00:10:20.831Z,100345.09
2022-12-03T00:12:22.234Z,100345.38
2022-12-03T00:14:23.628Z,100349.59
2022-12-03T00:16:25.074Z,100350.00
2022-12-03T00:18:26.513Z,100348.94
2022-12-03T00:20:27.916Z,100349.31
2022-12-03T00:22:29.321Z,100351.38
2022-12-03T00:24:30.717Z,100345.09
2022-12-03T00:26:32.112Z,100348.22
2022-12-03T00:28:33.510Z,100345.91
2022-12-03T00:30:34.892Z,100351.78
2022-12-03T00:32:36.284Z,100337.94
2022-12-03T00:34:37.646Z,100338.75
2022-12-03T00:36:39.020Z,100338.38
2022-12-03T00:38:40.485Z,100334.38
2022-12-03T00:40:41.979Z,100337.22
2022-12-03T00:42:43.324Z,100325.31
2022-12-03T00:44:44.704Z,100335.19
2022-12-03T00:46:46.101Z,100338.38
2022-12-03T00:48:47.527Z,100328.34
2022-12-03T00:50:48.930Z,100340.72
2022-12-03T00:52:50.330Z,100340.13
2022-12-03T00:54:52.140Z,100337.94
2022-12-03T00:56:53.727Z,100335.44
2022-12-03T00:58:55.114Z,100340.63
2022-12-03T01:00:57.724Z,100340.94
2022-12-03T01:02:59.107Z,100336.97
2022-12-03T01:05:00.573Z,100334.91
2022-12-03T01:07:02.008Z,100338.03
2022-12-03T01:09:03.591Z,100337.38
2022-12-03T01:11:25.108Z,100337.38
2022-12-03T01:13:26.602Z,100338.03
2022-12-03T01:15:27.990Z,100338.75
2022-12-03T01:17:29.400Z,100337.38
2022-12-03T01:19:30.815Z,100342.31
2022-12-03T01:21:32.739Z,100344.06
2022-12-03T01:23:34.115Z,100340.78
2022-12-03T01:25:35.470Z,100353.00
2022-12-03T01:27:36.983Z,100343.13
2022-12-03T01:29:38.349Z,100347.94
2022-12-03T01:31:58.373Z,100348.88
2022-12-03T01:33:59.933Z,100346.97
2022-12-03T01:36:01.290Z,100339.59
2022-12-03T01:38:02.636Z,100339.81
2022-12-03T01:40:05.352Z,100336.91
2022-12-03T01:42:09.123Z,100342.94
2022-12-03T01:44:16.747Z,100336.38
2022-12-03T01:46:22.043Z,100334.47
2022-12-03T01:48:23.441Z,100332.97
2022-12-03T01:50:31.701Z,100336.09
2022-12-03T01:52:37.283Z,100329.69
2022-12-03T01:54:41.787Z,100334.09
2022-12-03T01:56:43.783Z,100338.22
2022-12-03T01:58:46.269Z,100338.91
2022-12-03T02:00:47.657Z,100337.03
2022-12-03T02:02:52.634Z,100339.88
2022-12-03T02:04:55.262Z,100346.16
2022-12-03T02:06:56.908Z,100340.19
2022-12-03T02:09:00.189Z,100341.78
2022-12-03T02:11:05.740Z,100337.13
2022-12-03T02:13:10.797Z,100342.47
2022-12-03T02:15:12.863Z,100340.72
2022-12-03T02:17:14.497Z,100343.34
2022-12-03T02:19:26.834Z,100341.97
2022-12-03T02:21:48.419Z,100346.47
2022-12-03T02:23:52.739Z,100348.16
2022-12-03T02:25:54.161Z,100341.25
2022-12-03T02:27:56.020Z,100336.44
2022-12-03T02:29:57.685Z,100342.38
2022-12-03T02:32:14.188Z,100338.22
2022-12-03T02:34:45.537Z,100334.16
2022-12-03T02:36:46.912Z,100335.75
2022-12-03T02:38:49.637Z,100334.88
2022-12-03T02:40:56.630Z,100329.25
2022-12-03T02:43:01.048Z,100320.38
2022-12-03T02:45:14.362Z,100326.41
2022-12-03T02:47:16.006Z,100327.78
2022-12-03T02:49:17.406Z,100318.56
2022-12-03T02:51:18.860Z,100327.66
2022-12-03T02:53:24.708Z,100326.81
2022-12-03T02:55:30.649Z,100314.06
2022-12-03T02:57:37.330Z,100326.56
2022-12-03T02:59:39.034Z,100325.84
2022-12-03T03:01:40.577Z,100323.09
2022-12-03T03:03:44.492Z,100319.00
2022-12-03T03:05:47.554Z,100321.63
2022-12-03T03:07:53.008Z,100325.59
2022-12-03T03:09:54.466Z,100321.63
2022-12-03T03:11:55.884Z,100318.31
2022-12-03T03:13:57.313Z,100318.09
2022-12-03T03:15:59.331Z,100316.44
2022-12-03T03:18:00.743Z,100320.56
2022-12-03T03:20:03.894Z,100314.28
2022-12-03T03:22:06.209Z,100311.69
2022-12-03T03:24:07.783Z,100310.41
2022-12-03T03:26:12.453Z,100308.69
2022-12-03T03:28:14.236Z,100317.44
2022-12-03T03:30:16.028Z,100311.69
2022-12-03T03:32:23.144Z,100310.41
2022-12-03T03:34:24.786Z,100307.00
2022-12-03T03:36:26.310Z,100314.00
2022-12-03T03:38:29.767Z,100311.28
2022-12-03T03:40:31.467Z,100318.97
2022-12-03T03:42:33.257Z,100311.69
2022-12-03T03:44:34.904Z,100315.91
2022-12-03T03:46:37.373Z,100310.41
2022-12-03T03:48:41.154Z,100315.47
2022-12-03T03:50:44.332Z,100314.13
2022-12-03T03:52:46.596Z,100315.25
2022-12-03T03:54:48.177Z,100318.78
2022-12-03T03:56:49.726Z,100307.56
2022-12-03T03:58:51.233Z,100307.72
2022-12-03T04:00:52.669Z,100308.91
2022-12-03T04:02:54.279Z,100313.06
2022-12-03T04:04:56.232Z,100311.16
2022-12-03T04:06:57.776Z,100304.00
2022-12-03T04:08:59.127Z,100300.75
2022-12-03T04:11:19.148Z,100309.34
2022-12-03T04:13:20.556Z,100300.88
2022-12-03T04:15:22.290Z,100305.41
2022-12-03T04:17:23.740Z,100299.81
2022-12-03T04:19:25.160Z,100308.03
2022-12-03T04:21:44.979Z,100292.53
2022-12-03T04:23:46.340Z,100301.59
2022-12-03T04:26:06.200Z,100296.63
2022-12-03T04:28:26.974Z,100291.72
2022-12-03T04:30:28.439Z,100289.94
2022-12-03T04:32:48.282Z,100289.25
2022-12-03T04:35:08.143Z,100294.19
2022-12-03T04:37:09.739Z,100290.53
2022-12-03T04:39:11.109Z,100286.28
2022-12-03T04:41:12.434Z,100287.09
2022-12-03T04:43:13.826Z,100293.13
2022-12-03T04:45:15.222Z,100288.06
2022-12-03T04:47:19.518Z,100283.50
2022-12-03T04:49:21.793Z,100281.72
2022-12-03T04:51:23.169Z,100279.84
2022-12-03T04:53:24.554Z,100278.59
2022-12-03T04:55:25.951Z,100282.84
2022-12-03T04:57:27.299Z,100277.13
2022-12-03T04:59:29.112Z,100276.97
2022-12-03T05:01:30.603Z,100269.97
2022-12-03T05:03:32.018Z,100268.66
2022-12-03T05:05:33.364Z,100273.25
2022-12-03T05:07:34.742Z,100270.03
2022-12-03T05:09:36.149Z,100269.06
2022-12-03T05:11:37.930Z,100269.31
2022-12-03T05:13:39.357Z,100271.91
2022-12-03T05:15:40.727Z,100276.19
2022-12-03T05:17:42.208Z,100272.03
2022-12-03T05:20:02.480Z,100267.28
2022-12-03T05:22:03.852Z,100276.72
2022-12-03T05:24:05.736Z,100266.72
2022-12-03T05:26:07.143Z,100272.50
2022-12-03T05:28:08.605Z,100272.63
2022-12-03T05:30:10.332Z,100268.38
2022-12-03T05:32:11.676Z,100266.59
2022-12-03T05:34:13.081Z,100262.63
2022-12-03T05:36:14.488Z,100269.91
2022-12-03T05:38:15.918Z,100272.91
2022-12-03T05:40:17.559Z,100270.97
2022-12-03T05:42:37.588Z,100276.75
2022-12-03T05:44:38.978Z,100272.78
2022-12-03T05:46:40.339Z,100272.91
2022-12-03T05:48:41.773Z,100273.56
2022-12-03T05:50:45.222Z,100272.91
2022-12-03T05:52:47.041Z,100277.28
2022-12-03T05:54:48.532Z,100276.75
2022-12-03T05:56:49.888Z,100281.28
2022-12-03T05:58:51.273Z,100273.72
2022-12-03T06:00:52.669Z,100274.56
2022-12-03T06:02:54.556Z,100271.84
2022-12-03T06:04:56.377Z,100274.44
2022-12-03T06:06:57.890Z,100272.66
2022-12-03T06:08:59.269Z,100276.22
2022-12-03T06:11:00.620Z,100275.69
2022-12-03T06:13:03.115Z,100272.66
2022-12-03T06:15:05.365Z,100275.69
2022-12-03T06:17:06.837Z,100277.03
2022-12-03T06:19:08.218Z,100279.47
2022-12-03T06:21:09.590Z,100275.28
2022-12-03T06:23:10.991Z,100267.47
2022-12-03T06:25:12.666Z,100275.81
2022-12-03T06:27:14.152Z,100280.06
2022-12-03T06:29:15.527Z,100273.38
2022-12-03T06:31:16.966Z,100273.13
2022-12-03T06:33:18.503Z,100275.28
2022-12-03T06:35:19.885Z,100280.22
2022-12-03T06:37:21.248Z,100278.28
2022-12-03T06:39:22.618Z,100280.34
2022-12-03T06:41:24.000Z,100276.38
2022-12-03T06:43:25.483Z,100273.22
2022-12-03T06:45:26.913Z,100270.06
2022-12-03T06:47:28.300Z,100267.75
2022-12-03T06:49:29.737Z,100271.34
2022-12-03T06:51:31.210Z,100274.06
2022-12-03T06:53:32.620Z,100280.09
2022-12-03T06:55:33.953Z,100272.59
2022-12-03T06:57:35.452Z,100275.72
2022-12-03T06:59:37.471Z,100272.06
2022-12-03T07:01:39.037Z,100273.00
2022-12-03T07:03:40.457Z,100276.72
2022-12-03T07:05:41.906Z,100277.09
2022-12-03T07:07:43.373Z,100273.66
2022-12-03T07:09:44.777Z,100278.19
2022-12-03T07:11:46.189Z,100275.03
2022-12-03T07:13:47.554Z,100269.44
2022-12-03T07:15:49.059Z,100275.19
2022-12-03T07:17:51.052Z,100274.66
2022-12-03T07:19:52.445Z,100282.16
2022-12-03T07:21:53.821Z,100279.97
2022-12-03T07:23:55.204Z,100283.81
2022-12-03T07:25:56.565Z,100281.22
2022-12-03T07:27:57.932Z,100284.19
2022-12-03T07:29:59.342Z,100280.22
2022-12-03T07:32:00.709Z,100277.50
2022-12-03T07:34:02.144Z,100269.41
2022-12-03T07:36:03.676Z,100273.25
2022-12-03T07:38:05.059Z,100267.75
2022-12-03T07:40:07.103Z,100263.78
2022-12-03T07:42:09.505Z,100269.66
2022-12-03T07:44:14.600Z,100271.84
2022-12-03T07:46:16.433Z,100267.88
2022-12-03T07:48:17.857Z,100274.56
2022-12-03T07:50:19.271Z,100267.88
2022-12-03T07:52:20.655Z,100269.91
2022-12-03T07:54:22.264Z,100271.31
2022-12-03T07:56:23.616Z,100262.56
2022-12-03T07:58:25.061Z,100269.91
2022-12-03T08:00:26.497Z,100268.81
2022-12-03T08:02:27.901Z,100267.72
2022-12-03T08:04:29.349Z,100265.09
2022-12-03T08:06:30.761Z,100262.50
2022-12-03T08:08:32.176Z,100263.69
2022-12-03T08:10:33.530Z,100269.19
2022-12-03T08:12:40.649Z,100258.38
2022-12-03T08:14:42.056Z,100260.69
2022-12-03T08:16:45.050Z,100269.31
2022-12-03T08:18:48.180Z,100260.03
2022-12-03T08:20:51.246Z,100253.56
2022-12-03T08:22:54.446Z,100260.25
2022-12-03T08:24:56.162Z,100263.00
2022-12-03T08:26:57.677Z,100259.56
2022-12-03T08:28:59.622Z,100260.63
2022-12-03T08:31:12.230Z,100256.25
2022-12-03T08:33:19.827Z,100254.88
2022-12-03T08:35:23.678Z,100258.41
2022-12-03T08:37:25.166Z,100254.56
2022-12-03T08:39:37.585Z,100262.38
2022-12-03T08:41:57.546Z,100259.34
2022-12-03T08:43:58.982Z,100258.16
2022-12-03T08:46:00.480Z,100262.81
2022-12-03T08:48:05.956Z,100258.50
2022-12-03T08:50:27.973Z,100250.97
2022-12-03T08:52:34.507Z,100260.03
2022-12-03T08:54:35.872Z,100262.22
2022-12-03T08:56:37.318Z,100259.75
2022-12-03T08:58:44.006Z,100262.31
2022-12-03T09:00:45.672Z,100263.16
2022-12-03T09:02:52.298Z,100257.19
2022-12-03T09:04:54.804Z,100255.38
2022-12-03T09:06:56.735Z,100254.63
2022-12-03T09:09:01.239Z,100255.25
2022-12-03T09:11:06.601Z,100251.25
2022-12-03T09:13:07.950Z,100243.94
2022-12-03T09:15:09.918Z,100244.59
2022-12-03T09:17:11.336Z,100244.28
2022-12-03T09:19:12.748Z,100248.31
2022-12-03T09:21:14.097Z,100253.44
2022-12-03T09:23:15.471Z,100250.22
2022-12-03T09:25:17.073Z,100255.84
2022-12-03T09:27:18.619Z,100254.56
2022-12-03T09:29:20.110Z,100253.97
2022-12-03T09:31:21.519Z,100257.75
2022-12-03T09:33:22.987Z,100264.41
2022-12-03T09:35:25.963Z,100260.75
2022-12-03T09:37:27.347Z,100251.88
2022-12-03T09:39:28.685Z,100255.97
2022-12-03T09:41:30.093Z,100259.78
2022-12-03T09:44:02.619Z,100255.63
2022-12-03T09:45:55.229Z,100253.66
2022-12-03T09:47:57.152Z,100250.91
2022-12-03T09:49:58.799Z,100248.81
2022-12-03T09:52:02.395Z,100244.47
2022-12-03T09:54:06.630Z,100244.03
2022-12-03T09:56:17.966Z,100236.06
2022-12-03T09:58:19.871Z,100235.69
2022-12-03T10:00:24.220Z,100239.44
2022-12-03T10:02:29.593Z,100227.22
2022-12-03T10:04:31.513Z,100227.94
2022-12-03T10:06:32.952Z,100226.59
2022-12-03T10:08:34.420Z,100227.50
2022-12-03T10:10:37.048Z,100212.63
2022-12-03T10:12:38.387Z,100219.41
2022-12-03T10:14:41.420Z,100226.53
2022-12-03T10:16:43.528Z,100230.47
2022-12-03T10:18:49.239Z,100216.38
2022-12-03T10:20:52.684Z,100227.63
2022-12-03T10:22:54.789Z,100222.59
2022-12-03T10:25:25.439Z,100218.03
2022-12-03T10:27:30.684Z,100217.50
2022-12-03T10:29:35.018Z,100211.94
2022-12-03T10:31:36.773Z,100215.72
2022-12-03T10:33:42.974Z,100205.38
2022-12-03T10:35:44.376Z,100210.31
2022-12-03T10:38:02.456Z,100200.16
2022-12-03T10:40:11.983Z,100196.03
2022-12-03T10:42:16.002Z,100203.72
2022-12-03T10:44:21.784Z,100190.13
2022-12-03T10:46:23.354Z,100187.56
2022-12-03T10:48:27.212Z,100185.66
2022-12-03T10:50:28.835Z,100187.13
2022-12-03T10:52:30.309Z,100186.28
2022-12-03T10:54:35.357Z,100186.50
2022-12-03T10:56:36.754Z,100179.94
2022-12-03T10:58:40.357Z,100176.31
2022-12-03T11:00:41.729Z,100169.97
2022-12-03T11:02:43.172Z,100169.81
2022-12-03T11:04:44.508Z,100163.44
2022-12-03T11:06:45.959Z,100167.06
2022-12-03T11:08:56.254Z,100164.81
2022-12-03T11:11:04.470Z,100162.50
2022-12-03T11:13:33.467Z,100166.75
2022-12-03T11:15:44.301Z,100164.25
2022-12-03T11:17:50.034Z,100159.28
2022-12-03T11:19:52.302Z,100156.66
2022-12-03T11:22:05.903Z,100160.28
2022-12-03T11:24:19.944Z,100156.22
2022-12-03T11:26:30.665Z,100162.72
2022-12-03T11:28:33.967Z,100162.88
2022-12-03T11:30:50.798Z,100163.66
2022-12-03T11:32:55.104Z,100153.78
2022-12-03T11:34:56.523Z,100158.69
2022-12-03T11:37:10.120Z,100160.97
2022-12-03T11:39:11.458Z,100161.94
2022-12-03T11:41:21.096Z,100154.25
2022-12-03T11:43:57.125Z,100157.66
2022-12-03T11:46:10.566Z,100146.28
2022-12-03T11:48:14.917Z,100141.06
2022-12-03T11:50:20.805Z,100138.88
2022-12-03T11:52:26.112Z,100147.75
2022-12-03T11:54:28.223Z,100147.22
2022-12-03T11:56:29.957Z,100141.19
2022-12-03T11:58:32.286Z,100139.41
2022-12-03T12:00:33.683Z,100139.91
2022-12-03T12:02:35.116Z,100131.06
2022-12-03T12:04:42.885Z,100130.78
2022-12-03T12:06:47.450Z,100128.44
2022-12-03T12:08:57.431Z,100130.72
2022-12-03T12:10:59.192Z,100129.13
2022-12-03T12:13:00.656Z,100122.28
2022-12-03T12:15:34.298Z,100113.84
2022-12-03T12:17:36.772Z,100107.22
2022-12-03T12:19:42.944Z,100114.69
2022-12-03T12:21:47.992Z,100103.84
2022-12-03T12:23:49.411Z,100103.38
2022-12-03T12:25:54.241Z,100106.13
2022-12-03T12:27:56.954Z,100104.16
2022-12-03T12:30:00.855Z,100095.81
2022-12-03T12:32:12.184Z,100100.25
2022-12-03T12:34:13.695Z,100101.88
2022-12-03T12:36:15.125Z,100097.97
2022-12-03T12:38:19.507Z,100095.38
2022-12-03T12:40:24.255Z,100101.38
2022-12-03T12:42:37.064Z,100086.56
2022-12-03T12:44:38.448Z,100089.16
2022-12-03T12:46:49.914Z,100086.72
2022-12-03T12:48:55.223Z,100082.53
2022-12-03T12:51:20.351Z,100089.84
2022-12-03T12:53:26.908Z,100093.41
2022-12-03T12:55:28.455Z,100081.34
2022-12-03T12:57:29.852Z,100082.66
2022-12-03T12:59:31.350Z,100086.69
2022-12-03T13:01:33.160Z,100080.00
2022-12-03T13:04:03.783Z,100080.22
2022-12-03T13:06:05.435Z,100084.13
2022-12-03T13:08:40.547Z,100076.91
2022-12-03T13:10:42.448Z,100069.44
2022-12-03T13:12:44.466Z,100078.88
2022-12-03T13:14:45.884Z,100069.94
2022-12-03T13:16:49.538Z,100060.16
2022-12-03T13:18:58.829Z,100060.47
2022-12-03T13:21:15.166Z,100064.38
2022-12-03T13:23:33.218Z,100056.41
2022-12-03T13:25:59.264Z,100060.66
2022-12-03T13:27:58.800Z,100057.81
2022-12-03T13:30:04.879Z,100059.16
2022-12-03T13:32:27.634Z,100058.38
2022-12-03T13:34:33.253Z,100047.13
2022-12-03T13:36:45.574Z,100053.16
2022-12-03T13:38:47.627Z,100055.09
2022-12-03T13:41:32.820Z,100047.78
2022-12-03T13:43:44.544Z,100050.19
2022-12-03T13:45:51.291Z,100046.72
2022-12-03T13:48:01.199Z,100047.44
2022-12-03T13:50:19.572Z,100057.81
2022-12-03T13:52:24.986Z,100051.13
2022-12-03T13:54:30.148Z,100049.84
2022-12-03T13:56:32.687Z,100050.00
2022-12-03T13:58:34.068Z,100049.84
2022-12-03T14:00:35.576Z,100044.47
2022-12-03T14:02:37.120Z,100043.81
2022-12-03T14:04:39.063Z,100042.19
2022-12-03T14:06:40.509Z,100042.84
2022-12-03T14:08:41.915Z,100034.53
2022-12-03T14:10:43.323Z,100037.25
2022-12-03T14:12:44.704Z,100032.19
2022-12-03T14:14:46.117Z,100029.59
2022-12-03T14:16:47.621Z,100036.56
2022-12-03T14:18:49.093Z,100022.59
2022-12-03T14:20:50.507Z,100019.47
2022-12-03T14:22:57.641Z,100024.38
2022-12-03T14:25:00.513Z,100014.63
2022-12-03T14:27:01.944Z,100020.44
2022-12-03T14:29:08.402Z,100017.19
2022-12-03T14:31:10.214Z,100014.53
2022-12-03T14:33:11.796Z,100025.81
2022-12-03T14:35:13.392Z,100022.53
2022-12-03T14:37:15.230Z,100025.47
2022-12-03T14:39:16.588Z,100019.56
2022-12-03T14:41:36.243Z,100021.53
2022-12-03T14:43:37.632Z,100032.06
2022-12-03T14:45:39.044Z,100029.66
2022-12-03T14:47:40.452Z,100030.94
2022-12-03T14:49:41.899Z,100030.94
2022-12-03T14:51:43.319Z,100029.31
2022-12-03T14:53:44.696Z,100036.63
2022-12-03T14:55:47.973Z,100037.09
2022-12-03T14:57:49.437Z,100036.63
2022-12-03T14:59:50.788Z,100035.31
2022-12-03T15:01:52.372Z,100029.09
2022-12-03T15:03:53.858Z,100030.38
2022-12-03T15:05:55.271Z,100036.56
2022-12-03T15:07:56.660Z,100037.66
2022-12-03T15:09:58.702Z,100038.81
2022-12-03T15:12:00.233Z,100032.91
2022-12-03T15:14:01.609Z,100040.72
2022-12-03T15:16:03.186Z,100040.25
2022-12-03T15:18:04.823Z,100032.75
2022-12-03T15:20:06.999Z,100029.34
2022-12-03T15:22:08.407Z,100028.66
2022-12-03T15:24:10.575Z,100026.72
2022-12-03T15:26:11.992Z,100025.72
2022-12-03T15:28:13.376Z,100023.31
2022-12-03T15:30:14.944Z,100021.97
2022-12-03T15:32:16.345Z,100021.97
2022-12-03T15:34:22.443Z,100018.69
2022-12-03T15:36:24.391Z,100028.44
2022-12-03T15:38:25.946Z,100022.22
2022-12-03T15:40:27.914Z,100022.22
2022-12-03T15:42:29.662Z,100033.00
2022-12-03T15:44:31.012Z,100029.78
2022-12-03T15:46:32.455Z,100039.06
2022-12-03T15:48:34.509Z,100030.22
2022-12-03T15:50:40.086Z,100036.13
2022-12-03T15:52:43.970Z,100034.16
2022-12-03T15:54:45.831Z,100028.59
2022-12-03T15:56:47.207Z,100023.56
2022-12-03T15:58:48.572Z,100018.66
2022-12-03T16:00:49.924Z,100023.69
2022-12-03T16:02:53.059Z,100022.22
2022-12-03T16:04:54.689Z,100022.22
2022-12-03T16:06:56.044Z,100020.59
2022-12-03T16:08:57.394Z,100029.06
2022-12-03T16:10:58.743Z,100024.38
2022-12-03T16:13:00.095Z,100023.19
2022-12-03T16:15:01.510Z,100026.28
2022-12-03T16:17:03.072Z,100021.41
2022-12-03T16:19:04.526Z,100026.28
2022-12-03T16:21:05.944Z,100029.06
2022-12-03T16:23:08.135Z,100028.75
2022-12-03T16:25:09.725Z,100030.66
2022-12-03T16:27:11.140Z,100029.38
2022-12-03T16:29:12.533Z,100027.38
2022-12-03T16:31:13.969Z,100031.31
2022-12-03T16:33:15.534Z,100029.66
2022-12-03T16:35:17.011Z,100023.94
2022-12-03T16:37:18.501Z,100031.09
2022-12-03T16:39:19.963Z,100023.94
2022-12-03T16:41:22.350Z,100020.75
2022-12-03T16:43:23.695Z,100025.13
2022-12-03T16:45:43.719Z,100031.31
2022-12-03T16:47:45.091Z,100024.94
2022-12-03T16:49:46.452Z,100027.38
2022-12-03T16:51:47.827Z,100026.72
2022-12-03T16:53:49.345Z,100026.53
2022-12-03T16:55:50.671Z,100020.38
2022-12-03T16:57:52.056Z,100019.88
2022-12-03T16:59:53.587Z,100022.16
2022-12-03T17:01:55.454Z,100021.34
2022-12-03T17:03:56.868Z,100020.69
2022-12-03T17:05:58.283Z,100023.38
2022-12-03T17:07:59.751Z,100014.00
2022-12-03T17:10:01.258Z,100020.81
2022-12-03T17:12:02.779Z,100024.75
2022-12-03T17:14:04.180Z,100021.66
2022-12-03T17:16:06.741Z,100027.28
2022-12-03T17:18:08.812Z,100023.91
2022-12-03T17:20:12.414Z,100024.25
2022-12-03T17:22:13.895Z,100010.72
2022-12-03T17:24:15.223Z,100019.88
2022-12-03T17:26:18.176Z,100019.56
2022-12-03T17:28:19.581Z,100016.94
2022-12-03T17:30:20.979Z,100004.25
2022-12-03T17:32:22.497Z,100012.38
2022-12-03T17:34:23.858Z,100008.94
2022-12-03T17:36:25.223Z,100007.81
2022-12-03T17:38:26.604Z,99994.47
2022-12-03T17:40:28.028Z,99998.41
2022-12-03T17:42:29.445Z,99995.53
2022-12-03T17:44:30.776Z,100001.06
2022-12-03T17:46:32.775Z,100001.75
2022-12-03T17:48:35.011Z,99998.97
2022-12-03T17:50:36.375Z,100002.91
2022-12-03T17:52:37.734Z,100000.75
2022-12-03T17:55:08.352Z,100002.56
2022-12-03T17:57:00.616Z,100005.00
2022-12-03T17:59:01.972Z,100000.63
2022-12-03T18:01:03.648Z,99998.66
2022-12-03T18:03:05.062Z,99995.56
2022-12-03T18:05:06.808Z,99999.97
2022-12-03T18:07:08.267Z,99995.28
2022-12-03T18:09:09.874Z,99991.47
2022-12-03T18:11:11.221Z,100002.41
2022-12-03T18:13:12.601Z,99990.53
2022-12-03T18:15:14.739Z,99994.59
2022-12-03T18:17:16.114Z,99994.84
2022-12-03T18:19:17.551Z,99993.38
2022-12-03T18:21:19.065Z,99978.47
2022-12-03T18:23:20.712Z,99985.63
2022-12-03T18:25:22.122Z,99990.16
2022-12-03T18:27:23.781Z,99981.06
2022-12-03T18:29:25.146Z,99984.94
2022-12-03T18:31:26.574Z,99987.53
2022-12-03T18:33:28.172Z,99987.41
2022-12-03T18:35:29.666Z,99978.13
2022-12-03T18:37:32.190Z,99982.50
2022-12-03T18:39:35.857Z,99977.81
2022-12-03T18:41:37.276Z,99980.94
2022-12-03T18:43:41.305Z,99982.84
2022-12-03T18:45:43.039Z,99985.97
2022-12-03T18:47:44.927Z,99973.28
2022-12-03T18:49:46.460Z,99976.50
2022-12-03T18:51:48.541Z,99972.25
2022-12-03T18:53:51.249Z,99971.28
2022-12-03T18:55:52.684Z,99970.31
2022-12-03T18:57:54.035Z,99974.34
2022-12-03T18:59:55.680Z,99975.34
2022-12-03T19:01:57.354Z,99966.38
2022-12-03T19:03:58.924Z,99968.00
2022-12-03T19:06:00.303Z,99964.44
2022-12-03T19:08:02.352Z,99966.91
2022-12-03T19:12:30.999Z,99971.88
2022-12-03T19:14:36.109Z,99965.25
2022-12-03T19:16:41.274Z,99969.25
2022-12-03T19:18:43.117Z,99957.56
2022-12-03T19:20:44.506Z,99963.94
2022-12-03T19:22:46.158Z,99970.25
2022-12-03T19:24:47.504Z,99965.06
2022-12-03T19:26:49.116Z,99975.28
2022-12-03T19:28:50.475Z,99972.19
2022-12-03T19:31:00.706Z,99968.31
2022-12-03T19:33:02.259Z,99971.09
2022-12-03T19:35:05.235Z,99963.94
2022-12-03T19:37:06.771Z,99972.41
2022-12-03T19:39:08.145Z,99976.13
2022-12-03T19:41:10.754Z,99979.66
2022-12-03T19:43:12.098Z,99974.19
2022-12-03T19:45:13.476Z,99973.38
2022-12-03T19:47:14.854Z,99960.38
2022-12-03T19:49:18.361Z,99971.28
2022-12-03T19:51:34.083Z,99967.22
2022-12-03T19:53:37.446Z,99971.44
2022-12-03T19:55:38.883Z,99968.69
2022-12-03T19:57:40.271Z,99970.31
2022-12-03T19:59:42.715Z,99969.50
2022-12-03T20:01:44.443Z,99971.09
2022-12-03T20:03:48.239Z,99974.34
2022-12-03T20:05:50.289Z,99971.94
2022-12-03T20:07:51.723Z,99971.28
2022-12-03T20:09:53.603Z,99980.50
2022-12-03T20:11:55.190Z,99977.44
2022-12-03T20:13:59.982Z,99972.56
2022-12-03T20:16:05.716Z,99971.09
2022-12-03T20:18:07.120Z,99981.09
2022-12-03T20:20:09.047Z,99968.75
2022-12-03T20:22:10.456Z,99973.69
2022-12-03T20:24:15.097Z,99970.09
2022-12-03T20:26:18.600Z,99971.66
2022-12-03T20:28:20.106Z,99976.03
2022-12-03T20:30:21.527Z,99972.41
2022-12-03T20:32:25.246Z,99969.38
2022-12-03T20:34:26.620Z,99965.81
2022-12-03T20:36:30.649Z,99968.75
2022-12-03T20:38:32.149Z,99966.47
2022-12-03T20:40:36.477Z,99964.03
2022-12-03T20:42:37.932Z,99960.00
2022-12-03T20:44:39.303Z,99966.84
2022-12-03T20:46:40.740Z,99965.00
2022-12-03T20:48:43.360Z,99964.53
2022-12-03T20:50:44.714Z,99954.59
2022-12-03T20:53:09.357Z,99954.13
2022-12-03T20:55:07.725Z,99955.09
2022-12-03T20:57:09.160Z,99952.63
2022-12-03T20:59:13.094Z,99953.47
2022-12-03T21:01:17.471Z,99963.22
2022-12-03T21:03:18.965Z,99955.84
2022-12-03T21:05:20.427Z,99954.59
2022-12-03T21:07:21.801Z,99957.19
2022-12-03T21:09:23.220Z,99955.41
2022-12-03T21:11:29.488Z,99953.47
2022-12-03T21:13:32.522Z,99948.41
2022-12-03T21:15:33.979Z,99946.97
2022-12-03T21:17:35.456Z,99948.75
2022-12-03T21:19:37.296Z,99946.63
2022-12-03T21:21:38.690Z,99951.38
2022-12-03T21:23:40.378Z,99948.63
2022-12-03T21:25:41.731Z,99954.34
2022-12-03T21:27:43.184Z,99944.25
2022-12-03T21:29:44.544Z,99945.13
2022-12-03T21:31:46.557Z,99950.41
2022-12-03T21:33:48.237Z,99940.66
2022-12-03T21:35:49.612Z,99931.03
2022-12-03T21:37:51.680Z,99938.66
2022-12-03T21:39:53.822Z,99938.03
2022-12-03T21:42:18.647Z,99933.78
2022-12-03T21:44:16.987Z,99937.00
2022-12-03T21:47:10.097Z,99940.25
2022-12-03T21:48:39.923Z,99941.44
2022-12-03T21:50:41.518Z,99941.88
2022-12-03T21:52:42.970Z,99941.19
2022-12-03T21:54:44.463Z,99940.75
2022-12-03T21:56:45.861Z,99936.06
2022-12-03T21:58:47.331Z,99936.31
2022-12-03T22:00:48.716Z,99931.19
2022-12-03T22:02:50.119Z,99929.22
2022-12-03T22:04:51.675Z,99934.94
2022-12-03T22:06:53.066Z,99935.63
2022-12-03T22:08:54.507Z,99927.75
2022-12-03T22:10:55.861Z,99928.56
2022-12-03T22:12:57.261Z,99937.50
2022-12-03T22:14:58.792Z,99933.78
2022-12-03T22:17:00.150Z,99933.47
2022-12-03T22:19:01.504Z,99929.84
2022-12-03T22:21:07.855Z,99936.38
2022-12-03T22:23:09.219Z,99925.00
2022-12-03T22:25:10.587Z,99930.81
2022-12-03T22:27:13.053Z,99924.81
2022-12-03T22:29:14.824Z,99929.72
2022-12-03T22:31:19.616Z,99928.38
2022-12-03T22:33:21.225Z,99919.13
2022-12-03T22:35:22.607Z,99928.56
2022-12-03T22:37:24.051Z,99921.16
2022-12-03T22:39:25.421Z,99917.22
2022-12-03T22:41:26.806Z,99929.03
2022-12-03T22:43:28.207Z,99925.09
2022-12-03T22:45:29.529Z,99919.75
2022-12-03T22:47:30.922Z,99927.75
2022-12-03T22:49:32.290Z,99917.03
2022-12-03T22:51:34.081Z,99907.16
2022-12-03T22:53:35.454Z,99907.66
2022-12-03T22:55:37.106Z,99902.75
2022-12-03T22:57:38.491Z,99907.97
2022-12-03T22:59:39.865Z,99903.28
2022-12-03T23:01:41.408Z,99898.06
2022-12-03T23:03:42.844Z,99903.44
2022-12-03T23:05:44.274Z,99897.72
2022-12-03T23:07:45.698Z,99902.75
2022-12-03T23:09:47.120Z,99896.41
2022-12-03T23:11:48.556Z,99901.09
2022-12-03T23:13:50.026Z,99906.13
2022-12-03T23:15:52.492Z,99899.81
2022-12-03T23:17:54.468Z,99899.66
2022-12-03T23:19:56.027Z,99895.28
2022-12-03T23:21:58.058Z,99904.41
2022-12-03T23:24:01.339Z,99895.28
2022-12-03T23:26:08.667Z,99894.97
2022-12-03T23:28:10.767Z,99888.44
2022-12-03T23:30:14.377Z,99892.16
2022-12-03T23:32:15.736Z,99892.47
2022-12-03T23:34:17.167Z,99888.91
2022-12-03T23:36:19.333Z,99901.91
2022-12-03T23:38:21.078Z,99894.13
2022-12-03T23:40:22.414Z,99888.75
2022-12-03T23:42:23.805Z,99891.44